Flight Track Log - Related Links

Times and Time Zones

All times are in EST time to prevent confusion due to time zone crossing. See the N143DE flight status page for this flight to view local times or setup timezone preferences in your user account.

Time Position Orientation Groundspeed Altitude Reporting Facility
EST Latitude Longitude Course Direction KTS MPH feet Rate Location/Type
Sun 07:32:27 PM 33.5897 -86.8144 297° West 74 85 11,000  Level Atlanta Center
Sun 07:33:27 PM 33.6339 -86.8033 12° North 119 137 11,000 -200 Level Atlanta Center
Sun 07:34:27 PM 33.6583 -86.7367 66° East 147 169 10,600 -100 Descending Atlanta Center
Sun 07:35:27 PM 33.6789 -86.6550 73° East 190 219 10,800 200 Climbing Atlanta Center
Sun 07:36:27 PM 33.7097 -86.5761 65° Northeast 232 267 11,000 100 Climbing Atlanta Center
Sun 07:37:27 PM 33.7386 -86.4919 68° East 257 296 11,000  Level Atlanta Center
Sun 07:38:27 PM 33.7694 -86.4103 66° East 268 308 11,000  Level Atlanta Center
Sun 07:39:27 PM 33.7958 -86.3286 69° East 268 308 11,000  Level Atlanta Center
Sun 07:40:27 PM 33.8247 -86.2444 68° East 268 308 11,000 50 Level Atlanta Center
Sun 07:41:27 PM 33.8533 -86.1600 68° East 268 308 11,100 -50 Climbing Atlanta Center
Sun 07:42:27 PM 33.8797 -86.0756 69° East 268 308 10,900 -100 Descending Atlanta Center
Sun 07:43:27 PM 33.9122 -85.9936 64° Northeast 268 308 10,900  Level Atlanta Center
Sun 07:44:27 PM 33.9428 -85.9092 66° East 268 308 10,900  Level Atlanta Center
Sun 07:45:27 PM 33.9692 -85.8222 70° East 274 315 10,900  Level Atlanta Center
Sun 07:46:27 PM 33.9747 -85.7322 86° East 268 308 10,900  Level Atlanta Center
Sun 07:47:27 PM 33.9739 -85.6394 91° East 273 314 10,900  Level Atlanta Center
Sun 07:48:27 PM 33.9708 -85.5542 92° East 273 314 10,900  Level Atlanta Center
Sun 07:49:27 PM 33.9675 -85.4639 93° East 273 314 10,900 -650 Level Atlanta Center
Sun 07:50:27 PM 33.9644 -85.3689 92° East 278 320 9,600 -1,200 Descending Atlanta Center
Sun 07:51:27 PM 33.9633 -85.2711 91° East 286 329 8,500 -850 Descending Atlanta Center
Sun 07:52:27 PM 33.9622 -85.1808 91° East 280 322 7,900 -350 Descending Atlanta Center
Sun 07:53:27 PM 33.9608 -85.1008 91° East 246 283 7,800 -1,000 Descending Atlanta Center
Sun 07:54:27 PM 33.9700 -85.0081 83° East 241 277 5,900 -2,000 Descending Atlanta Center
Sun 07:55:27 PM 33.9853 -84.9256 77° East 253 291 3,800 -1,550 Descending Atlanta Center
Sun 07:56:27 PM 34.0003 -84.8606 74° East 225 259 2,800 -450 Descending Atlanta Center
Sun 07:57:27 PM 34.0131 -84.8106 73° East 177 204 2,900 100 Climbing Atlanta Center
Sun 07:58:27 PM 34.0156 -84.7506 87° East 164 189 3,000 50 Climbing Atlanta Center
Sun 07:59:27 PM 34.0117 -84.6978 95° East 158 182 3,000  Level Atlanta Center
Sun 08:02:00 PM 34.0132 -84.5971 90° East  Level Estimated

Login

Don't have an account? Register now (free) for customized features, flight alerts, and more!